createdAt,value
2022-12-28T00:00:32.115Z,11.55
2022-12-28T00:02:58.773Z,18.88
2022-12-28T00:05:25.556Z,11.30
2022-12-28T00:07:52.211Z,12.30
2022-12-28T00:10:18.902Z,14.40
2022-12-28T00:13:05.550Z,12.32
2022-12-28T00:15:32.203Z,14.10
2022-12-28T00:17:58.808Z,10.93
2022-12-28T00:20:25.421Z,12.60
2022-12-28T00:22:56.231Z,10.63
2022-12-28T00:25:22.919Z,10.07
2022-12-28T00:27:49.533Z,14.57
2022-12-28T00:30:16.183Z,10.85
2022-12-28T00:32:42.775Z,14.95
2022-12-28T00:35:12.506Z,11.27
2022-12-28T00:37:39.199Z,12.57
2022-12-28T00:40:06.515Z,13.00
2022-12-28T00:42:33.162Z,8.98
2022-12-28T00:44:59.814Z,10.43
2022-12-28T00:47:26.411Z,13.57
2022-12-28T00:49:53.059Z,14.43
2022-12-28T00:52:19.732Z,14.40
2022-12-28T00:54:46.417Z,13.05
2022-12-28T00:57:13.191Z,11.43
2022-12-28T00:59:39.902Z,14.65
2022-12-28T01:02:06.676Z,11.70
2022-12-28T01:04:33.349Z,11.57
2022-12-28T01:06:59.993Z,10.65
2022-12-28T01:09:26.633Z,11.43
2022-12-28T01:11:53.220Z,13.20
2022-12-28T01:14:19.878Z,10.35
2022-12-28T01:16:46.521Z,9.20
2022-12-28T01:19:16.469Z,10.05
2022-12-28T01:24:09.940Z,10.85
2022-12-28T01:26:36.652Z,9.90
2022-12-28T01:29:03.381Z,9.45
2022-12-28T01:31:30.055Z,12.35
2022-12-28T01:33:56.923Z,8.75
2022-12-28T01:36:24.889Z,14.02
2022-12-28T01:38:55.836Z,11.93
2022-12-28T01:41:22.656Z,10.10
2022-12-28T01:43:52.345Z,12.63
2022-12-28T01:46:37.163Z,15.43
2022-12-28T01:49:28.354Z,12.63
2022-12-28T01:52:10.350Z,9.70
2022-12-28T01:54:42.907Z,7.80
2022-12-28T01:57:09.595Z,12.48
2022-12-28T01:59:39.246Z,12.05
2022-12-28T02:02:06.013Z,11.48
2022-12-28T02:04:32.790Z,13.95
2022-12-28T02:07:02.499Z,12.80
2022-12-28T02:09:35.734Z,12.80
2022-12-28T02:12:02.383Z,11.15
2022-12-28T02:14:29.168Z,11.55
2022-12-28T02:16:55.857Z,15.50
2022-12-28T02:19:31.290Z,20.58
2022-12-28T02:22:17.107Z,12.70
2022-12-28T02:25:11.423Z,12.13
2022-12-28T02:27:53.297Z,11.82
2022-12-28T02:30:20.041Z,14.55
2022-12-28T02:33:16.252Z,18.95
2022-12-28T02:35:50.536Z,13.38
2022-12-28T02:38:43.427Z,14.13
2022-12-28T02:41:12.802Z,13.10
2022-12-28T02:43:39.516Z,11.73
2022-12-28T02:46:15.893Z,16.00
2022-12-28T02:48:43.901Z,14.27
2022-12-28T02:51:40.477Z,13.90
2022-12-28T02:54:41.240Z,12.07
2022-12-28T02:57:18.875Z,17.48
2022-12-28T03:00:01.807Z,19.60
2022-12-28T03:02:39.296Z,16.33
2022-12-28T03:05:23.012Z,17.05
2022-12-28T03:08:00.856Z,12.32
2022-12-28T03:10:36.234Z,12.85
2022-12-28T03:13:09.713Z,14.15
2022-12-28T03:15:37.281Z,16.10
2022-12-28T03:18:14.999Z,12.90
2022-12-28T03:20:41.659Z,13.63
2022-12-28T03:23:08.925Z,10.50
2022-12-28T03:25:38.248Z,14.43
2022-12-28T03:28:05.831Z,15.23
2022-12-28T03:30:32.703Z,10.48
2022-12-28T03:32:59.377Z,10.85
2022-12-28T03:35:38.299Z,12.68
2022-12-28T03:38:04.931Z,8.10
2022-12-28T03:40:47.143Z,11.48
2022-12-28T03:45:48.022Z,10.43
2022-12-28T03:48:15.778Z,7.88
2022-12-28T03:50:43.410Z,10.13
2022-12-28T03:53:10.150Z,9.57
2022-12-28T03:55:36.795Z,12.00
2022-12-28T03:58:04.735Z,13.70
2022-12-28T04:00:31.497Z,6.63
2022-12-28T04:02:58.318Z,8.05
2022-12-28T04:05:24.983Z,7.95
2022-12-28T04:07:51.668Z,8.90
2022-12-28T04:10:18.308Z,7.80
2022-12-28T04:12:44.913Z,8.27
2022-12-28T04:15:11.646Z,4.90
2022-12-28T04:17:38.316Z,5.25
2022-12-28T04:20:05.779Z,9.20
2022-12-28T04:22:32.472Z,6.53
2022-12-28T04:24:59.153Z,6.32
2022-12-28T04:27:25.882Z,4.30
2022-12-28T04:29:52.566Z,5.45
2022-12-28T04:32:19.261Z,8.95
2022-12-28T04:34:48.753Z,6.38
2022-12-28T04:39:55.477Z,4.80
2022-12-28T04:42:24.896Z,7.18
2022-12-28T04:44:51.575Z,5.32
2022-12-28T04:47:18.176Z,4.97
2022-12-28T04:49:44.854Z,5.70
2022-12-28T04:52:11.547Z,4.90
2022-12-28T04:54:38.187Z,8.75
2022-12-28T04:57:04.784Z,5.40
2022-12-28T04:59:31.517Z,6.30
2022-12-28T05:01:58.229Z,5.85
2022-12-28T05:04:24.946Z,6.20
2022-12-28T05:06:51.614Z,5.72
2022-12-28T05:09:18.263Z,9.00
2022-12-28T05:11:44.904Z,7.68
2022-12-28T05:14:11.619Z,3.75
2022-12-28T05:16:38.275Z,6.90
2022-12-28T05:19:04.924Z,3.17
2022-12-28T05:21:31.579Z,4.13
2022-12-28T05:23:58.195Z,4.70
2022-12-28T05:26:26.698Z,7.43
2022-12-28T05:28:53.356Z,8.60
2022-12-28T05:31:21.319Z,4.43
2022-12-28T05:33:48.152Z,4.50
2022-12-28T05:36:22.358Z,5.47
2022-12-28T05:38:49.047Z,7.55
2022-12-28T05:41:21.418Z,4.05
2022-12-28T05:43:48.438Z,6.40
2022-12-28T05:46:20.326Z,4.13
2022-12-28T05:48:47.356Z,4.13
2022-12-28T05:51:16.309Z,3.67
2022-12-28T05:53:43.099Z,4.90
2022-12-28T05:56:23.382Z,4.55
2022-12-28T05:58:55.113Z,5.22
2022-12-28T06:01:33.114Z,4.60
2022-12-28T06:04:07.049Z,2.55
2022-12-28T06:06:34.133Z,3.08
2022-12-28T06:09:00.752Z,5.80
2022-12-28T06:11:28.335Z,5.57
2022-12-28T06:13:55.394Z,4.75
2022-12-28T06:16:27.167Z,5.70
2022-12-28T06:18:53.905Z,5.50
2022-12-28T06:21:31.010Z,8.70
2022-12-28T06:23:58.464Z,5.47
2022-12-28T06:26:26.004Z,3.90
2022-12-28T06:28:52.856Z,5.47
2022-12-28T06:31:21.379Z,3.25
2022-12-28T06:33:48.221Z,6.05
2022-12-28T06:36:20.230Z,5.75
2022-12-28T06:38:48.099Z,4.65
2022-12-28T06:41:15.272Z,4.22
2022-12-28T06:43:42.797Z,6.95
2022-12-28T06:46:09.834Z,3.55
2022-12-28T06:48:36.932Z,5.78
2022-12-28T06:51:05.329Z,3.00
2022-12-28T06:53:36.036Z,5.47
2022-12-28T06:56:07.963Z,6.05
2022-12-28T06:58:34.772Z,6.20
2022-12-28T07:01:18.730Z,5.07
2022-12-28T07:03:46.463Z,5.20
2022-12-28T07:06:13.601Z,3.70
2022-12-28T07:08:41.242Z,6.13
2022-12-28T07:11:13.706Z,3.92
2022-12-28T07:13:40.884Z,4.90
2022-12-28T07:16:15.756Z,4.85
2022-12-28T07:18:42.704Z,4.95
2022-12-28T07:21:21.804Z,8.52
2022-12-28T07:23:49.297Z,5.18
2022-12-28T07:26:23.039Z,6.45
2022-12-28T07:28:51.995Z,5.68
2022-12-28T07:31:21.093Z,5.32
2022-12-28T07:33:48.301Z,8.15
2022-12-28T07:36:16.733Z,5.43
2022-12-28T07:38:45.283Z,7.32
2022-12-28T07:41:14.201Z,9.00
2022-12-28T07:43:40.976Z,7.78
2022-12-28T07:46:18.329Z,7.13
2022-12-28T07:48:46.910Z,7.38
2022-12-28T07:51:20.907Z,7.45
2022-12-28T07:53:48.853Z,6.47
2022-12-28T07:56:15.811Z,9.10
2022-12-28T08:01:14.005Z,6.60
2022-12-28T08:03:41.626Z,5.63
2022-12-28T08:06:10.601Z,8.05
2022-12-28T08:08:38.429Z,5.00
2022-12-28T08:11:09.846Z,8.35
2022-12-28T08:13:37.859Z,9.32
2022-12-28T08:16:05.105Z,6.80
2022-12-28T08:18:31.890Z,7.63
2022-12-28T08:21:12.826Z,6.15
2022-12-28T08:23:42.693Z,7.80
2022-12-28T08:28:37.527Z,4.95
2022-12-28T08:31:15.202Z,6.63
2022-12-28T08:33:42.308Z,5.72
2022-12-28T08:36:09.995Z,4.85
2022-12-28T08:38:37.605Z,5.80
2022-12-28T08:41:16.172Z,7.97
2022-12-28T08:43:43.113Z,9.75
2022-12-28T08:46:17.539Z,6.32
2022-12-28T08:48:45.022Z,11.57
2022-12-28T08:51:34.290Z,8.57
2022-12-28T08:54:01.590Z,6.93
2022-12-28T08:56:30.883Z,6.18
2022-12-28T08:58:57.711Z,11.23
2022-12-28T09:01:42.486Z,6.72
2022-12-28T09:04:15.869Z,7.15
2022-12-28T09:06:42.944Z,9.57
2022-12-28T09:09:13.540Z,4.72
2022-12-28T09:11:40.491Z,4.53
2022-12-28T09:14:09.459Z,6.05
2022-12-28T09:16:36.547Z,9.90
2022-12-28T09:19:04.615Z,6.65
2022-12-28T09:21:33.763Z,6.70
2022-12-28T09:24:00.556Z,9.30
2022-12-28T09:26:38.986Z,5.80
2022-12-28T09:29:07.315Z,7.82
2022-12-28T09:31:47.882Z,7.90
2022-12-28T09:37:01.588Z,5.18
2022-12-28T09:39:28.382Z,8.52
2022-12-28T09:42:06.902Z,7.68
2022-12-28T09:44:45.618Z,6.55
2022-12-28T09:47:45.895Z,9.18
2022-12-28T09:50:26.563Z,9.68
2022-12-28T09:53:15.289Z,4.28
2022-12-28T09:56:02.155Z,8.88
2022-12-28T09:58:30.348Z,8.52
2022-12-28T10:00:58.520Z,4.32
2022-12-28T10:03:40.264Z,7.35
2022-12-28T10:06:16.643Z,10.38
2022-12-28T10:08:54.162Z,9.70
2022-12-28T10:11:41.605Z,12.70
2022-12-28T10:14:18.023Z,10.63
2022-12-28T10:16:48.660Z,8.00
2022-12-28T10:19:20.846Z,6.25
2022-12-28T10:21:47.591Z,8.77
2022-12-28T10:24:31.377Z,10.85
2022-12-28T10:26:59.570Z,6.47
2022-12-28T10:29:27.026Z,11.15
2022-12-28T10:32:08.404Z,8.23
2022-12-28T10:34:36.609Z,6.40
2022-12-28T10:37:14.769Z,6.32
2022-12-28T10:39:50.427Z,8.60
2022-12-28T10:42:53.633Z,9.88
2022-12-28T10:45:22.148Z,8.75
2022-12-28T10:47:50.588Z,13.43
2022-12-28T10:50:49.507Z,14.75
2022-12-28T10:53:35.100Z,7.43
2022-12-28T10:56:26.182Z,8.93
2022-12-28T10:59:12.035Z,10.25
2022-12-28T11:01:40.535Z,6.25
2022-12-28T11:04:16.433Z,12.43
2022-12-28T11:07:00.099Z,10.77
2022-12-28T11:12:20.134Z,7.50
2022-12-28T11:14:51.490Z,12.68
2022-12-28T11:17:33.238Z,8.80
2022-12-28T11:20:15.947Z,8.95
2022-12-28T11:22:46.741Z,10.85
2022-12-28T11:25:20.076Z,10.05
2022-12-28T11:27:47.224Z,12.60
2022-12-28T11:30:18.324Z,12.77
2022-12-28T11:32:48.249Z,12.43
2022-12-28T11:35:20.411Z,13.32
2022-12-28T11:37:54.736Z,11.93
2022-12-28T11:40:43.714Z,10.80
2022-12-28T11:43:34.900Z,10.80
2022-12-28T11:46:02.692Z,12.20
2022-12-28T11:48:41.652Z,11.82
2022-12-28T11:51:23.683Z,10.80
2022-12-28T11:53:59.984Z,13.35
2022-12-28T11:56:47.376Z,11.93
2022-12-28T11:59:22.466Z,12.05
2022-12-28T12:01:53.772Z,10.75
2022-12-28T12:04:26.997Z,9.75
2022-12-28T12:06:53.605Z,6.20
2022-12-28T12:09:23.331Z,11.43
2022-12-28T12:14:33.015Z,11.20
2022-12-28T12:17:20.446Z,9.98
2022-12-28T12:19:48.277Z,12.40
2022-12-28T12:22:19.840Z,10.73
2022-12-28T12:24:49.948Z,8.93
2022-12-28T12:27:31.253Z,10.77
2022-12-28T12:30:00.739Z,6.50
2022-12-28T12:32:36.753Z,8.38
2022-12-28T12:37:55.855Z,9.80
2022-12-28T12:40:41.427Z,11.05
2022-12-28T12:43:30.946Z,8.85
2022-12-28T12:46:05.279Z,7.03
2022-12-28T12:48:56.922Z,11.02
2022-12-28T12:51:45.533Z,12.13
2022-12-28T12:54:26.477Z,13.77
2022-12-28T12:57:15.720Z,10.73
2022-12-28T12:59:50.125Z,8.57
2022-12-28T13:02:42.495Z,12.65
2022-12-28T13:05:21.278Z,9.93
2022-12-28T13:07:48.456Z,9.60
2022-12-28T13:10:22.523Z,8.13
2022-12-28T13:12:49.239Z,8.73
2022-12-28T13:15:17.959Z,13.77
2022-12-28T13:21:04.743Z,10.18
2022-12-28T13:23:34.147Z,8.25
2022-12-28T13:26:01.313Z,6.85
2022-12-28T13:28:35.801Z,7.18
2022-12-28T13:31:07.940Z,8.63
2022-12-28T13:33:34.785Z,10.63
2022-12-28T13:36:15.179Z,15.85
2022-12-28T13:38:41.813Z,8.43
2022-12-28T13:41:24.084Z,11.93
2022-12-28T13:44:31.057Z,10.35
2022-12-28T13:49:26.394Z,7.70
2022-12-28T13:51:53.771Z,7.18
2022-12-28T13:54:20.795Z,10.85
2022-12-28T13:56:47.473Z,6.03
2022-12-28T13:59:15.849Z,7.75
2022-12-28T14:01:43.970Z,6.10
2022-12-28T14:04:51.171Z,7.22
2022-12-28T14:07:00.315Z,7.18
2022-12-28T14:09:26.961Z,10.00
2022-12-28T14:11:53.784Z,8.85
2022-12-28T14:14:20.523Z,7.28
2022-12-28T14:16:47.281Z,5.88
2022-12-28T14:19:14.157Z,7.13
2022-12-28T14:21:43.585Z,7.50
2022-12-28T14:24:14.578Z,8.48
2022-12-28T14:26:52.964Z,6.30
2022-12-28T14:29:30.123Z,6.07
2022-12-28T14:32:04.741Z,7.57
2022-12-28T14:34:33.830Z,8.63
2022-12-28T14:37:01.939Z,9.38
2022-12-28T14:39:36.977Z,7.68
2022-12-28T14:42:05.449Z,9.18
2022-12-28T14:44:37.839Z,7.95
2022-12-28T14:47:33.974Z,10.48
2022-12-28T14:50:01.682Z,8.18
2022-12-28T14:52:42.359Z,6.68
2022-12-28T14:55:26.940Z,6.28
2022-12-28T14:58:12.869Z,10.20
2022-12-28T15:00:54.771Z,8.02
2022-12-28T15:03:23.212Z,7.25
2022-12-28T15:05:53.377Z,6.65
2022-12-28T15:08:21.381Z,5.13
2022-12-28T15:10:53.451Z,5.65
2022-12-28T15:13:20.319Z,5.70
2022-12-28T15:16:00.831Z,8.38
2022-12-28T15:18:28.236Z,6.45
2022-12-28T15:20:54.989Z,8.88
2022-12-28T15:23:26.066Z,7.03
2022-12-28T15:25:53.214Z,4.75
2022-12-28T15:28:19.942Z,8.98
2022-12-28T15:30:46.916Z,6.47
2022-12-28T15:33:17.065Z,9.43
2022-12-28T15:35:44.010Z,7.00
2022-12-28T15:38:10.687Z,6.65
2022-12-28T15:40:40.327Z,6.25
2022-12-28T15:43:07.621Z,5.82
2022-12-28T15:45:34.722Z,6.50
2022-12-28T15:48:01.477Z,9.60
2022-12-28T15:50:28.124Z,6.78
2022-12-28T15:52:56.008Z,6.22
2022-12-28T15:55:22.674Z,10.88
2022-12-28T15:57:50.034Z,4.43
2022-12-28T16:00:20.112Z,5.50
2022-12-28T16:02:47.160Z,10.10
2022-12-28T16:05:14.432Z,6.07
2022-12-28T16:07:41.364Z,8.02
2022-12-28T16:10:08.417Z,10.25
2022-12-28T16:12:35.199Z,5.60
2022-12-28T16:15:01.833Z,7.70
2022-12-28T16:17:28.442Z,9.85
2022-12-28T16:19:55.133Z,9.18
2022-12-28T16:22:21.865Z,6.20
2022-12-28T16:25:01.707Z,11.10
2022-12-28T16:27:28.456Z,7.82
2022-12-28T16:29:58.739Z,5.82
2022-12-28T16:32:25.607Z,4.88
2022-12-28T16:34:54.308Z,6.53
2022-12-28T16:37:22.266Z,7.68
2022-12-28T16:39:49.573Z,5.80
2022-12-28T16:42:18.257Z,6.82
2022-12-28T16:44:45.114Z,7.07
2022-12-28T16:47:11.763Z,7.75
2022-12-28T16:49:41.453Z,6.82
2022-12-28T16:52:17.229Z,7.68
2022-12-28T16:54:44.015Z,8.70
2022-12-28T16:57:10.694Z,8.63
2022-12-28T16:59:37.631Z,7.57
2022-12-28T17:02:04.731Z,5.85
2022-12-28T17:04:32.024Z,5.63
2022-12-28T17:06:58.941Z,7.43
2022-12-28T17:09:25.964Z,6.78
2022-12-28T17:11:52.806Z,7.68
2022-12-28T17:14:36.309Z,11.45
2022-12-28T17:17:04.514Z,10.05
2022-12-28T17:19:31.563Z,9.50
2022-12-28T17:21:59.418Z,5.78
2022-12-28T17:24:26.206Z,8.85
2022-12-28T17:26:52.963Z,7.32
2022-12-28T17:29:19.832Z,10.60
2022-12-28T17:35:20.567Z,8.23
2022-12-28T17:37:47.350Z,7.93
2022-12-28T17:40:37.296Z,8.38
2022-12-28T17:43:04.050Z,7.28
2022-12-28T17:45:31.419Z,8.32
2022-12-28T17:47:58.241Z,5.45
2022-12-28T17:50:25.145Z,7.75
2022-12-28T17:52:51.856Z,6.03
2022-12-28T17:55:18.682Z,6.78
2022-12-28T17:57:45.321Z,9.43
2022-12-28T18:00:12.826Z,7.75
2022-12-28T18:02:39.814Z,8.55
2022-12-28T18:05:09.649Z,8.02
2022-12-28T18:07:36.512Z,8.40
2022-12-28T18:10:03.552Z,6.18
2022-12-28T18:12:37.624Z,6.95
2022-12-28T18:15:10.903Z,7.65
2022-12-28T18:17:37.610Z,8.73
2022-12-28T18:20:05.135Z,5.15
2022-12-28T18:22:32.071Z,8.25
2022-12-28T18:25:01.946Z,10.00
2022-12-28T18:29:57.065Z,6.68
2022-12-28T18:32:24.094Z,7.07
2022-12-28T18:34:52.704Z,8.55
2022-12-28T18:37:20.666Z,11.27
2022-12-28T18:39:53.303Z,11.27
2022-12-28T18:42:20.115Z,9.02
2022-12-28T18:44:46.847Z,12.15
2022-12-28T18:47:13.819Z,9.63
2022-12-28T18:49:46.876Z,6.95
2022-12-28T18:52:16.607Z,5.93
2022-12-28T18:54:43.369Z,6.55
2022-12-28T18:57:10.306Z,9.05
2022-12-28T18:59:37.376Z,11.95
2022-12-28T19:02:06.918Z,10.30
2022-12-28T19:04:35.217Z,6.75
2022-12-28T19:07:02.299Z,10.98
2022-12-28T19:09:29.009Z,7.60
2022-12-28T19:11:56.327Z,9.35
2022-12-28T19:14:23.208Z,7.57
2022-12-28T19:16:50.044Z,6.72
2022-12-28T19:19:17.172Z,8.35
2022-12-28T19:21:44.343Z,6.85
2022-12-28T19:24:18.399Z,8.85
2022-12-28T19:26:45.598Z,5.97
2022-12-28T19:29:12.970Z,9.57
2022-12-28T19:31:39.743Z,8.27
2022-12-28T19:34:08.353Z,7.30
2022-12-28T19:36:35.352Z,7.18
2022-12-28T19:39:02.530Z,6.20
2022-12-28T19:41:29.864Z,9.93
2022-12-28T19:43:56.562Z,8.07
2022-12-28T19:46:24.931Z,9.02
2022-12-28T19:48:54.654Z,7.63
2022-12-28T19:51:25.801Z,8.20
2022-12-28T19:53:56.834Z,7.43
2022-12-28T19:56:23.525Z,7.20
2022-12-28T19:58:50.138Z,8.85
2022-12-28T20:01:22.130Z,10.82
2022-12-28T20:03:49.157Z,8.90
2022-12-28T20:06:17.762Z,8.25
2022-12-28T20:08:48.471Z,6.78
2022-12-28T20:11:16.765Z,6.68
2022-12-28T20:13:46.458Z,7.25
2022-12-28T20:16:15.866Z,8.27
2022-12-28T20:18:47.027Z,6.70
2022-12-28T20:21:21.889Z,6.50
2022-12-28T20:23:52.394Z,6.28
2022-12-28T20:26:19.901Z,6.25
2022-12-28T20:28:48.120Z,6.07
2022-12-28T20:31:15.002Z,7.35
2022-12-28T20:33:42.114Z,7.45
2022-12-28T20:36:12.402Z,7.45
2022-12-28T20:38:39.360Z,7.47
2022-12-28T20:41:27.627Z,7.35
2022-12-28T20:46:20.902Z,6.65
2022-12-28T20:48:47.939Z,8.05
2022-12-28T20:51:14.599Z,8.50
2022-12-28T20:53:41.745Z,7.88
2022-12-28T20:56:09.519Z,9.10
2022-12-28T20:58:37.996Z,7.55
2022-12-28T21:01:06.075Z,8.75
2022-12-28T21:03:32.890Z,9.57
2022-12-28T21:06:00.444Z,8.50
2022-12-28T21:08:30.947Z,8.68
2022-12-28T21:10:58.283Z,8.60
2022-12-28T21:13:25.247Z,7.55
2022-12-28T21:15:52.336Z,9.32
2022-12-28T21:18:19.656Z,7.93
2022-12-28T21:20:51.737Z,8.32
2022-12-28T21:23:18.664Z,6.47
2022-12-28T21:25:45.401Z,9.13
2022-12-28T21:28:12.633Z,8.45
2022-12-28T21:30:39.562Z,6.43
2022-12-28T21:33:06.348Z,7.95
2022-12-28T21:35:34.749Z,7.43
2022-12-28T21:38:01.757Z,8.15
2022-12-28T21:40:28.533Z,6.30
2022-12-28T21:42:55.219Z,7.55
2022-12-28T21:45:21.940Z,6.88
2022-12-28T21:47:49.888Z,5.93
2022-12-28T21:50:16.793Z,6.95
2022-12-28T21:52:43.644Z,6.45
2022-12-28T21:55:10.562Z,4.88
2022-12-28T21:57:37.482Z,7.72
2022-12-28T22:00:04.801Z,7.03
2022-12-28T22:02:31.828Z,6.90
2022-12-28T22:05:03.010Z,5.95
2022-12-28T22:07:34.478Z,6.65
2022-12-28T22:10:01.138Z,5.63
2022-12-28T22:12:28.124Z,6.40
2022-12-28T22:14:55.130Z,7.15
2022-12-28T22:17:21.812Z,6.85
2022-12-28T22:19:49.017Z,8.77
2022-12-28T22:22:16.056Z,9.73
2022-12-28T22:24:43.820Z,7.05
2022-12-28T22:27:10.597Z,9.60
2022-12-28T22:29:37.396Z,6.93
2022-12-28T22:32:04.556Z,5.95
2022-12-28T22:34:31.795Z,6.13
2022-12-28T22:36:58.727Z,5.43
2022-12-28T22:39:25.516Z,7.63
2022-12-28T22:41:52.286Z,5.70
2022-12-28T22:44:18.974Z,6.50
2022-12-28T22:46:45.605Z,4.93
2022-12-28T22:49:12.216Z,5.00
2022-12-28T22:51:39.220Z,5.05
2022-12-28T22:54:05.903Z,5.60
2022-12-28T22:56:32.924Z,5.93
2022-12-28T22:59:02.904Z,4.53
2022-12-28T23:01:31.597Z,4.88
2022-12-28T23:03:58.299Z,6.35
2022-12-28T23:06:24.927Z,5.05
2022-12-28T23:08:51.543Z,6.35
2022-12-28T23:11:18.287Z,4.18
2022-12-28T23:13:44.929Z,6.60
2022-12-28T23:16:11.638Z,5.72
2022-12-28T23:18:38.265Z,4.32
2022-12-28T23:21:05.073Z,5.15
2022-12-28T23:23:31.670Z,4.93
2022-12-28T23:26:00.826Z,4.63
2022-12-28T23:28:27.480Z,4.88
2022-12-28T23:30:54.208Z,3.95
2022-12-28T23:33:20.928Z,4.88
2022-12-28T23:35:47.577Z,5.13
2022-12-28T23:38:14.223Z,5.30
2022-12-28T23:40:41.170Z,4.75
2022-12-28T23:43:07.981Z,6.25
2022-12-28T23:45:35.079Z,3.08
2022-12-28T23:48:01.758Z,4.00
2022-12-28T23:50:28.433Z,3.83
2022-12-28T23:52:55.071Z,4.60
2022-12-28T23:55:21.677Z,3.88
2022-12-28T23:57:48.265Z,4.57
